RYR86FK EIDW-LGSA
Flight info
| Callsign | RYR86FK |
|---|---|
| Flight time | N/A |
| Altitude | 37000 |
| Route | ENDEQ3J ENDEQ Q36 ALAVA Z195 MALUD UL975 WAL M16 DOLAS DCT NAVPI DCT DODEN DCT NEGIX DCT DINKU DCT BESNI DCT LATLO DCT OBEDI DCT NAKUM DCT KFT DCT OLEZE DCT TEBLI DCT TIVNU DCT RETRA DCT PINDO DCT PIKOS UL607 ATV UP169 MANOK L612 RUSOS |
| Aircraft | B738/M-SDE2E3FGHIRWXY/LB1 |
Departure
| Time | N/A |
|---|---|
| Airport | Dublin Airport (EIDW) |
Arrival
| Time | 2026-05-08 11:46 |
|---|---|
| Airport | Chania International Airport (LGSA) |
| Time | Latitude | Longitude | Altitude | Speed | Heading |
|---|---|---|---|---|---|
| 2026-05-08 10:35 | 41.88868 | 19.65850 | 37024 ft | 445 kts | 149° |
| 2026-05-08 10:36 | 41.86338 | 19.68243 | 37038 ft | 446 kts | 149° |
| 2026-05-08 10:36 | 41.81248 | 19.73051 | 37017 ft | 448 kts | 149° |
| 2026-05-08 10:37 | 41.76157 | 19.77851 | 37029 ft | 448 kts | 149° |
| 2026-05-08 10:37 | 41.71068 | 19.82640 | 37027 ft | 448 kts | 149° |
| 2026-05-08 10:38 | 41.65946 | 19.87450 | 37024 ft | 449 kts | 149° |
| 2026-05-08 10:38 | 41.60822 | 19.92252 | 37029 ft | 449 kts | 149° |
| 2026-05-08 10:39 | 41.55735 | 19.97010 | 37016 ft | 449 kts | 149° |
| 2026-05-08 10:39 | 41.50619 | 20.01786 | 37014 ft | 448 kts | 149° |
| 2026-05-08 10:40 | 41.45505 | 20.06551 | 37031 ft | 448 kts | 149° |
| 2026-05-08 10:40 | 41.40424 | 20.11275 | 37031 ft | 448 kts | 149° |
| 2026-05-08 10:41 | 41.35301 | 20.16028 | 37028 ft | 449 kts | 149° |
| 2026-05-08 10:41 | 41.30171 | 20.20780 | 37038 ft | 450 kts | 149° |
| 2026-05-08 10:42 | 41.25015 | 20.25546 | 37042 ft | 450 kts | 149° |
| 2026-05-08 10:42 | 41.19883 | 20.30281 | 37052 ft | 451 kts | 149° |
| 2026-05-08 10:43 | 41.14729 | 20.35027 | 37064 ft | 452 kts | 149° |
| 2026-05-08 10:43 | 41.09555 | 20.39782 | 37084 ft | 451 kts | 149° |
| 2026-05-08 10:44 | 41.04380 | 20.44528 | 37081 ft | 451 kts | 150° |
| 2026-05-08 10:44 | 40.99255 | 20.49221 | 37094 ft | 451 kts | 150° |
| 2026-05-08 10:45 | 40.94073 | 20.53954 | 37094 ft | 452 kts | 150° |
| 2026-05-08 10:45 | 40.88896 | 20.58675 | 37097 ft | 453 kts | 150° |
| 2026-05-08 10:46 | 40.83730 | 20.63377 | 37088 ft | 453 kts | 150° |
| 2026-05-08 10:46 | 40.78537 | 20.68095 | 37094 ft | 453 kts | 150° |
| 2026-05-08 10:47 | 40.73335 | 20.72811 | 37088 ft | 454 kts | 150° |
| 2026-05-08 10:47 | 40.68151 | 20.77502 | 37094 ft | 454 kts | 150° |
| 2026-05-08 10:48 | 40.62932 | 20.82216 | 37097 ft | 455 kts | 150° |
| 2026-05-08 10:48 | 40.57704 | 20.86930 | 37088 ft | 455 kts | 150° |
| 2026-05-08 10:49 | 40.52470 | 20.91641 | 37095 ft | 455 kts | 150° |
| 2026-05-08 10:49 | 40.47271 | 20.96402 | 37088 ft | 457 kts | 145° |
| 2026-05-08 10:50 | 40.42446 | 21.01864 | 37091 ft | 459 kts | 142° |
| 2026-05-08 10:50 | 40.37739 | 21.07432 | 37112 ft | 459 kts | 142° |
| 2026-05-08 10:51 | 40.32953 | 21.13014 | 37088 ft | 460 kts | 143° |
| 2026-05-08 10:51 | 40.28141 | 21.18553 | 37113 ft | 459 kts | 143° |
| 2026-05-08 10:52 | 40.23360 | 21.24029 | 37093 ft | 460 kts | 143° |
| 2026-05-08 10:52 | 40.18529 | 21.29552 | 37098 ft | 460 kts | 143° |
| 2026-05-08 10:53 | 40.13692 | 21.35074 | 37099 ft | 461 kts | 143° |
| 2026-05-08 10:53 | 40.08854 | 21.40587 | 37099 ft | 461 kts | 143° |
| 2026-05-08 10:54 | 40.04033 | 21.46071 | 37099 ft | 462 kts | 143° |
| 2026-05-08 10:54 | 39.99171 | 21.51593 | 37092 ft | 463 kts | 143° |
| 2026-05-08 10:55 | 39.94304 | 21.57105 | 37098 ft | 463 kts | 143° |
| 2026-05-08 10:55 | 39.89454 | 21.62581 | 37096 ft | 463 kts | 143° |
| 2026-05-08 10:56 | 39.84579 | 21.68076 | 37120 ft | 464 kts | 143° |
| 2026-05-08 10:56 | 39.79680 | 21.73589 | 37103 ft | 465 kts | 143° |
| 2026-05-08 10:57 | 39.74796 | 21.79076 | 37093 ft | 466 kts | 143° |
| 2026-05-08 10:57 | 39.67439 | 21.87323 | 37093 ft | 466 kts | 143° |
| 2026-05-08 10:58 | 39.62517 | 21.92827 | 37098 ft | 465 kts | 143° |
| 2026-05-08 10:58 | 39.57608 | 21.98305 | 37100 ft | 465 kts | 143° |
| 2026-05-08 10:59 | 39.52721 | 22.03747 | 37103 ft | 465 kts | 143° |
| 2026-05-08 10:59 | 39.47805 | 22.09211 | 37119 ft | 465 kts | 143° |
| 2026-05-08 11:00 | 39.42882 | 22.14673 | 37100 ft | 467 kts | 143° |
| 2026-05-08 11:00 | 39.37938 | 22.20147 | 37108 ft | 468 kts | 143° |
| 2026-05-08 11:01 | 39.33008 | 22.25595 | 37106 ft | 469 kts | 143° |
| 2026-05-08 11:01 | 39.28031 | 22.31085 | 37106 ft | 471 kts | 143° |
| 2026-05-08 11:02 | 39.20556 | 22.39310 | 37108 ft | 473 kts | 143° |
| 2026-05-08 11:03 | 39.15525 | 22.44832 | 37091 ft | 475 kts | 143° |
| 2026-05-08 11:03 | 39.11338 | 22.49421 | 37103 ft | 475 kts | 145° |
| 2026-05-08 11:04 | 39.06294 | 22.54941 | 37098 ft | 475 kts | 144° |
| 2026-05-08 11:04 | 39.01239 | 22.60459 | 37095 ft | 475 kts | 144° |
| 2026-05-08 11:05 | 38.96223 | 22.65924 | 37095 ft | 474 kts | 144° |
| 2026-05-08 11:05 | 38.91198 | 22.71389 | 37095 ft | 473 kts | 144° |
| 2026-05-08 11:06 | 38.86162 | 22.76854 | 37105 ft | 473 kts | 144° |
| 2026-05-08 11:06 | 38.81153 | 22.82279 | 37097 ft | 476 kts | 144° |
| 2026-05-08 11:07 | 38.76079 | 22.87764 | 37120 ft | 477 kts | 144° |
| 2026-05-08 11:07 | 38.70989 | 22.93258 | 37109 ft | 479 kts | 144° |
| 2026-05-08 11:08 | 38.65920 | 22.98717 | 37105 ft | 479 kts | 144° |
| 2026-05-08 11:08 | 38.60817 | 23.04205 | 37116 ft | 479 kts | 144° |
| 2026-05-08 11:09 | 38.55706 | 23.09688 | 37127 ft | 480 kts | 144° |
| 2026-05-08 11:09 | 38.50558 | 23.15200 | 37115 ft | 482 kts | 144° |
| 2026-05-08 11:10 | 38.45439 | 23.20671 | 37113 ft | 483 kts | 144° |
| 2026-05-08 11:10 | 38.40272 | 23.26184 | 37108 ft | 485 kts | 144° |
| 2026-05-08 11:11 | 38.35078 | 23.31715 | 37118 ft | 486 kts | 144° |
| 2026-05-08 11:11 | 38.29908 | 23.37209 | 37110 ft | 487 kts | 144° |
| 2026-05-08 11:12 | 38.24692 | 23.42742 | 37119 ft | 488 kts | 144° |
| 2026-05-08 11:12 | 38.19450 | 23.48295 | 37097 ft | 490 kts | 145° |
| 2026-05-08 11:13 | 38.14200 | 23.53840 | 37112 ft | 490 kts | 145° |
| 2026-05-08 11:13 | 38.08940 | 23.59382 | 37099 ft | 491 kts | 145° |
| 2026-05-08 11:14 | 38.03693 | 23.64902 | 37104 ft | 491 kts | 145° |
| 2026-05-08 11:14 | 37.98429 | 23.70433 | 37107 ft | 491 kts | 145° |
| 2026-05-08 11:15 | 37.93187 | 23.75925 | 37129 ft | 490 kts | 146° |
| 2026-05-08 11:15 | 37.90384 | 23.78340 | 37117 ft | 482 kts | 158° |
| 2026-05-08 11:15 | 37.87363 | 23.80099 | 37135 ft | 474 kts | 167° |
| 2026-05-08 11:16 | 37.81059 | 23.81872 | 37150 ft | 459 kts | 180° |
| 2026-05-08 11:16 | 37.74750 | 23.82804 | 37126 ft | 457 kts | 181° |
| 2026-05-08 11:17 | 37.68461 | 23.83750 | 37120 ft | 453 kts | 181° |
| 2026-05-08 11:17 | 37.62204 | 23.84734 | 37123 ft | 451 kts | 181° |
| 2026-05-08 11:18 | 37.55985 | 23.85730 | 37127 ft | 448 kts | 181° |
| 2026-05-08 11:18 | 37.49842 | 23.86715 | 37128 ft | 446 kts | 181° |
| 2026-05-08 11:19 | 37.43676 | 23.87701 | 37129 ft | 444 kts | 181° |
| 2026-05-08 11:19 | 37.37549 | 23.88678 | 37130 ft | 443 kts | 181° |
| 2026-05-08 11:20 | 37.31456 | 23.89647 | 37137 ft | 443 kts | 181° |
| 2026-05-08 11:20 | 37.25332 | 23.90618 | 37139 ft | 444 kts | 181° |
| 2026-05-08 11:21 | 37.19220 | 23.91587 | 37103 ft | 446 kts | 181° |
| 2026-05-08 11:21 | 37.16143 | 23.92074 | 36756 ft | 445 kts | 181° |
| 2026-05-08 11:21 | 37.13071 | 23.92562 | 36187 ft | 445 kts | 181° |
| 2026-05-08 11:21 | 37.09983 | 23.93051 | 35651 ft | 446 kts | 181° |
| 2026-05-08 11:22 | 37.06902 | 23.93539 | 35205 ft | 445 kts | 181° |
| 2026-05-08 11:22 | 37.03839 | 23.94025 | 34837 ft | 441 kts | 181° |
| 2026-05-08 11:22 | 37.00812 | 23.94506 | 34498 ft | 437 kts | 181° |
| 2026-05-08 11:22 | 36.97807 | 23.94983 | 34158 ft | 433 kts | 181° |
| 2026-05-08 11:23 | 36.94824 | 23.95454 | 33747 ft | 430 kts | 181° |
| 2026-05-08 11:23 | 36.91869 | 23.95919 | 33342 ft | 427 kts | 181° |
| 2026-05-08 11:23 | 36.88964 | 23.96376 | 32961 ft | 424 kts | 181° |
| 2026-05-08 11:23 | 36.86041 | 23.96835 | 32597 ft | 421 kts | 181° |
| 2026-05-08 11:24 | 36.83143 | 23.97290 | 32236 ft | 417 kts | 181° |
| 2026-05-08 11:24 | 36.80263 | 23.97742 | 31849 ft | 415 kts | 180° |
| 2026-05-08 11:24 | 36.77404 | 23.98190 | 31486 ft | 412 kts | 180° |
| 2026-05-08 11:24 | 36.74573 | 23.98633 | 31144 ft | 409 kts | 180° |
| 2026-05-08 11:25 | 36.71753 | 23.99075 | 30803 ft | 406 kts | 180° |
| 2026-05-08 11:25 | 36.68959 | 23.99512 | 30459 ft | 403 kts | 180° |
| 2026-05-08 11:25 | 36.66220 | 23.99940 | 30108 ft | 400 kts | 180° |
| 2026-05-08 11:25 | 36.63471 | 24.00370 | 29721 ft | 397 kts | 180° |
| 2026-05-08 11:26 | 36.60732 | 24.00797 | 29322 ft | 394 kts | 180° |
| 2026-05-08 11:26 | 36.58018 | 24.01221 | 28914 ft | 391 kts | 180° |
| 2026-05-08 11:26 | 36.55317 | 24.01641 | 28507 ft | 389 kts | 180° |
| 2026-05-08 11:26 | 36.52641 | 24.02058 | 28127 ft | 386 kts | 180° |
| 2026-05-08 11:27 | 36.50015 | 24.02467 | 27754 ft | 383 kts | 180° |
| 2026-05-08 11:27 | 36.47363 | 24.02879 | 27372 ft | 381 kts | 180° |
| 2026-05-08 11:27 | 36.44739 | 24.03287 | 27002 ft | 379 kts | 180° |
| 2026-05-08 11:27 | 36.42145 | 24.03926 | 26610 ft | 386 kts | 165° |
| 2026-05-08 11:28 | 36.39763 | 24.05543 | 26228 ft | 395 kts | 146° |
| 2026-05-08 11:28 | 36.37863 | 24.08033 | 25886 ft | 400 kts | 130° |
| 2026-05-08 11:28 | 36.36242 | 24.10768 | 25579 ft | 397 kts | 129° |
| 2026-05-08 11:28 | 36.34637 | 24.13547 | 25224 ft | 395 kts | 129° |
| 2026-05-08 11:29 | 36.33035 | 24.16306 | 24880 ft | 393 kts | 129° |
| 2026-05-08 11:29 | 36.31425 | 24.19040 | 24567 ft | 390 kts | 130° |
| 2026-05-08 11:29 | 36.29814 | 24.21742 | 24261 ft | 387 kts | 130° |
| 2026-05-08 11:29 | 36.28204 | 24.24424 | 23952 ft | 385 kts | 130° |
| 2026-05-08 11:30 | 36.26622 | 24.27050 | 23627 ft | 383 kts | 130° |
| 2026-05-08 11:30 | 36.25031 | 24.29685 | 23248 ft | 380 kts | 130° |
| 2026-05-08 11:30 | 36.23436 | 24.32292 | 22875 ft | 377 kts | 135° |
| 2026-05-08 11:30 | 36.21462 | 24.34336 | 22450 ft | 365 kts | 157° |
| 2026-05-08 11:31 | 36.19124 | 24.35367 | 22098 ft | 351 kts | 176° |
| 2026-05-08 11:31 | 36.16737 | 24.35501 | 21715 ft | 338 kts | 193° |
| 2026-05-08 11:31 | 36.14430 | 24.34962 | 21279 ft | 336 kts | 199° |
| 2026-05-08 11:31 | 36.12178 | 24.34300 | 20808 ft | 337 kts | 199° |
| 2026-05-08 11:32 | 36.09897 | 24.33611 | 20352 ft | 339 kts | 199° |
| 2026-05-08 11:32 | 36.07589 | 24.32930 | 19864 ft | 341 kts | 200° |
| 2026-05-08 11:32 | 36.05269 | 24.32263 | 19421 ft | 343 kts | 200° |
| 2026-05-08 11:32 | 36.02937 | 24.31606 | 18981 ft | 345 kts | 200° |
| 2026-05-08 11:33 | 36.00585 | 24.30947 | 18551 ft | 346 kts | 200° |
| 2026-05-08 11:33 | 35.98257 | 24.30296 | 18076 ft | 347 kts | 200° |
| 2026-05-08 11:33 | 35.95894 | 24.29635 | 17584 ft | 348 kts | 200° |
| 2026-05-08 11:33 | 35.93520 | 24.28970 | 17092 ft | 349 kts | 199° |
| 2026-05-08 11:34 | 35.91154 | 24.28308 | 16625 ft | 350 kts | 199° |
| 2026-05-08 11:34 | 35.88780 | 24.27644 | 16147 ft | 350 kts | 199° |
| 2026-05-08 11:34 | 35.86398 | 24.26978 | 15683 ft | 351 kts | 199° |
| 2026-05-08 11:34 | 35.83967 | 24.26544 | 15199 ft | 356 kts | 187° |
| 2026-05-08 11:35 | 35.81478 | 24.26761 | 14560 ft | 362 kts | 176° |
| 2026-05-08 11:35 | 35.79025 | 24.27523 | 13941 ft | 364 kts | 168° |
| 2026-05-08 11:35 | 35.76608 | 24.28438 | 13240 ft | 362 kts | 168° |
| 2026-05-08 11:35 | 35.74212 | 24.29366 | 12554 ft | 360 kts | 165° |
| 2026-05-08 11:36 | 35.72007 | 24.30854 | 11874 ft | 366 kts | 146° |
| 2026-05-08 11:36 | 35.70072 | 24.32892 | 11243 ft | 364 kts | 141° |
| 2026-05-08 11:36 | 35.68213 | 24.34994 | 10593 ft | 361 kts | 140° |
| 2026-05-08 11:36 | 35.66409 | 24.37058 | 9974 ft | 357 kts | 140° |
| 2026-05-08 11:37 | 35.64595 | 24.39136 | 9272 ft | 354 kts | 140° |
| 2026-05-08 11:37 | 35.62794 | 24.41190 | 8589 ft | 350 kts | 140° |
| 2026-05-08 11:37 | 35.61010 | 24.43212 | 7920 ft | 346 kts | 139° |
| 2026-05-08 11:37 | 35.59243 | 24.45194 | 7281 ft | 342 kts | 139° |
| 2026-05-08 11:38 | 35.57502 | 24.47124 | 6663 ft | 340 kts | 139° |
| 2026-05-08 11:38 | 35.55744 | 24.49047 | 5990 ft | 337 kts | 139° |
| 2026-05-08 11:38 | 35.53988 | 24.50950 | 5327 ft | 334 kts | 140° |
| 2026-05-08 11:38 | 35.52248 | 24.52820 | 4647 ft | 330 kts | 140° |
| 2026-05-08 11:39 | 35.50422 | 24.54436 | 3951 ft | 325 kts | 158° |
| 2026-05-08 11:39 | 35.48237 | 24.54875 | 3369 ft | 316 kts | 188° |
| 2026-05-08 11:39 | 35.46250 | 24.53993 | 3164 ft | 295 kts | 212° |
| 2026-05-08 11:39 | 35.44707 | 24.52467 | 3032 ft | 276 kts | 229° |
| 2026-05-08 11:40 | 35.43668 | 24.50591 | 3004 ft | 255 kts | 246° |
| 2026-05-08 11:40 | 35.43158 | 24.48605 | 3003 ft | 234 kts | 260° |
| 2026-05-08 11:40 | 35.43009 | 24.46717 | 2990 ft | 211 kts | 271° |
| 2026-05-08 11:40 | 35.43196 | 24.45025 | 3003 ft | 201 kts | 287° |
| 2026-05-08 11:41 | 35.43689 | 24.43417 | 3010 ft | 201 kts | 292° |
| 2026-05-08 11:41 | 35.44236 | 24.41842 | 2994 ft | 199 kts | 293° |
| 2026-05-08 11:41 | 35.44784 | 24.40287 | 2994 ft | 198 kts | 292° |
| 2026-05-08 11:41 | 35.45307 | 24.38728 | 2993 ft | 197 kts | 291° |
| 2026-05-08 11:42 | 35.45819 | 24.37169 | 2997 ft | 197 kts | 291° |
| 2026-05-08 11:42 | 35.46326 | 24.35627 | 3004 ft | 197 kts | 291° |
| 2026-05-08 11:42 | 35.46844 | 24.34050 | 2897 ft | 203 kts | 291° |
| 2026-05-08 11:42 | 35.47376 | 24.32434 | 2760 ft | 203 kts | 291° |
| 2026-05-08 11:43 | 35.47893 | 24.30860 | 2631 ft | 194 kts | 291° |
| 2026-05-08 11:43 | 35.48381 | 24.29374 | 2496 ft | 182 kts | 291° |
| 2026-05-08 11:43 | 35.48852 | 24.27940 | 2465 ft | 178 kts | 291° |
| 2026-05-08 11:43 | 35.49300 | 24.26580 | 2448 ft | 173 kts | 290° |
| 2026-05-08 11:44 | 35.49747 | 24.25229 | 2390 ft | 169 kts | 290° |
| 2026-05-08 11:44 | 35.50195 | 24.23883 | 2324 ft | 172 kts | 291° |
| 2026-05-08 11:44 | 35.50699 | 24.22531 | 2037 ft | 173 kts | 292° |
| 2026-05-08 11:44 | 35.51171 | 24.21188 | 1675 ft | 170 kts | 290° |
| 2026-05-08 11:45 | 35.51613 | 24.19844 | 1274 ft | 168 kts | 290° |
| 2026-05-08 11:45 | 35.52017 | 24.18572 | 1005 ft | 157 kts | 290° |
| 2026-05-08 11:45 | 35.52409 | 24.17355 | 695 ft | 150 kts | 293° |
| 2026-05-08 11:45 | 35.52781 | 24.16200 | 504 ft | 137 kts | 291° |
| 2026-05-08 11:46 | 35.53076 | 24.15285 | 482 ft | 85 kts | 292° |
| 2026-05-08 11:46 | 35.53214 | 24.14858 | 489 ft | 30 kts | 291° |
| 2026-05-08 11:46 | 35.53290 | 24.14625 | 494 ft | 28 kts | 291° |
| 2026-05-08 11:46 | 35.53357 | 24.14419 | 491 ft | 25 kts | 292° |
| 2026-05-08 11:47 | 35.53418 | 24.14269 | 490 ft | 15 kts | 330° |
| 2026-05-08 11:47 | 35.53515 | 24.14301 | 497 ft | 12 kts | 21° |
| 2026-05-08 11:47 | 35.53590 | 24.14337 | 497 ft | 12 kts | 21° |
| 2026-05-08 11:47 | 35.53665 | 24.14368 | 497 ft | 11 kts | 2° |
| 2026-05-08 11:48 | 35.53711 | 24.14297 | 492 ft | 11 kts | 291° |
| 2026-05-08 11:48 | 35.53739 | 24.14209 | 489 ft | 11 kts | 291° |
| 2026-05-08 11:48 | 35.53767 | 24.14117 | 488 ft | 12 kts | 291° |
| 2026-05-08 11:48 | 35.53793 | 24.14036 | 492 ft | 10 kts | 291° |
| 2026-05-08 11:49 | 35.53812 | 24.13979 | 490 ft | 5 kts | 293° |
| 2026-05-08 11:49 | 35.53822 | 24.13948 | 497 ft | 0 kts | 293° |
| 2026-05-08 11:49 | 35.53825 | 24.13942 | 493 ft | 1 kts | 293° |
| 2026-05-08 11:49 | 35.53829 | 24.13928 | 494 ft | 2 kts | 289° |
| 2026-05-08 11:50 | 35.53830 | 24.13925 | 494 ft | 0 kts | 289° |
| 2026-05-08 11:50 | 35.53831 | 24.13923 | 495 ft | 1 kts | 303° |
| 2026-05-08 11:51 | 35.53839 | 24.13921 | 495 ft | 2 kts | 352° |
| 2026-05-08 11:51 | 35.53875 | 24.13938 | 494 ft | 6 kts | 21° |
| 2026-05-08 11:51 | 35.53900 | 24.13950 | 497 ft | 3 kts | 19° |
| 2026-05-08 11:51 | 35.53910 | 24.13954 | 497 ft | 0 kts | 21° |
| 2026-05-08 11:52 | 35.53911 | 24.13955 | 497 ft | 0 kts | 21° |